• Join FlightAware (Why Join?)
  • Login
  • US Flag 
08:04AM EDT


 

Airport Tracker/Info


-or-


 

Live Flight TrackerFlight Track Log ✈ N400PU ✈ 16-Dec-2013 ✈ KLAF - KMQJ

Flight Track Log - Related Links

Times and Time Zones

All times are in EST time to prevent confusion due to time zone crossing. See the N400PU flight status page for this flight to view local times or setup timezone preferences in your user account.

Time Position Orientation Groundspeed Altitude Reporting Facility
EST Latitude Longitude Course Direction KTS MPH feet Rate Location/Type
07:14AM 40.3678 -86.8461 126° Southeast 238 274 2,900  Level Indianapolis Center
07:15AM 40.3183 -86.7556 126° Southeast 254 292 3,000  Climbing Chicago Center
07:16AM 40.2794 -86.6822 125° Southeast 250 288 3,000  Level Chicago Center
07:17AM 40.1457 -86.4452 127° Southeast  Level Estimated
07:17AM 40.2397 -86.6119 127° Southeast 246 283 3,000  Level Chicago Center
07:18AM 40.1001 -86.3645 126° Southeast  Level FlightAware Approximate
07:18AM 40.2019 -86.5433 126° Southeast 240 276 3,000  Level Chicago Center
07:19AM 40.0545 -86.2839 126° Southeast  Level FlightAware Approximate
07:19AM 40.1739 -86.4728 117° Southeast 228 262 3,000  Level Chicago Center
07:20AM 40.1511 -86.3989 112° Southeast 222 255 3,000  Level Chicago Center
07:21AM 40.1281 -86.3247 112° Southeast 220 253 3,000  Level Chicago Center
07:22AM 40.0917 -86.2736 133° Southeast 222 255 3,000  Level Indianapolis Center
07:23AM 40.0356 -86.2858 189° South 210 242 3,000  Level Indianapolis Center
07:24AM 39.9778 -86.3003 191° South 209 241 3,000  Level Indianapolis Center
07:25AM 39.9178 -86.3283 200° South 221 254 3,000  Level Indianapolis Center
07:26AM 39.8583 -86.3606 203° Southwest 230 265 3,000  Level Indianapolis Center
07:27AM 39.7867 -86.4003 203° Southwest 236 272 3,000  Level Indianapolis Center
07:28AM 39.7275 -86.4358 205° Southwest 238 274 3,000 -60 Level Indianapolis Center
07:29AM 39.6808 -86.4947 224° Southwest 239 275 2,900  Descending Indianapolis Center
07:30AM 39.6325 -86.5300 209° Southwest 222 255 3,000  Climbing Indianapolis Center
07:31AM 39.5828 -86.5119 164° South 215 247 3,000  Level Indianapolis Center
07:32AM 39.6047 -86.4483 66° East 205 236 3,000 -180 Level Indianapolis Center
07:33AM 39.6406 -86.4050 43° Northeast 190 219 2,700 -600 Descending Indianapolis Center
07:34AM 39.6664 -86.3717 45° Northeast 156 180 1,900 -840 Descending Indianapolis Center
07:35AM 39.6947 -86.3358 44° Northeast 131 151 1,000 -600 Descending Indianapolis Center
07:36AM 39.7158 -86.3092 44° Northeast 118 136 700 -180 Descending Indianapolis Center
07:37AM 39.7192 -86.3042 49° Northeast 61 70 700  Level Indianapolis Center
07:38AM 39.7242 -86.2986 41° Northeast 39 45 700  Level Indianapolis Center
07:39AM 39.7283 -86.2969 17° North 35 40 700  Level Indianapolis Center